sensor_id;sensor_type;location;lat;lon;timestamp;temperature;humidity
63051;SHT30;49136;47.416;19.402;2023-04-15T00:01:50;5.59;99.99
63051;SHT30;49136;47.416;19.402;2023-04-15T00:04:16;5.67;99.99
63051;SHT30;49136;47.416;19.402;2023-04-15T00:06:41;5.64;99.99
63051;SHT30;49136;47.416;19.402;2023-04-15T00:09:07;5.60;99.99
63051;SHT30;49136;47.416;19.402;2023-04-15T00:11:32;5.63;99.99
63051;SHT30;49136;47.416;19.402;2023-04-15T00:13:58;5.66;99.99
63051;SHT30;49136;47.416;19.402;2023-04-15T00:16:24;5.66;99.99
63051;SHT30;49136;47.416;19.402;2023-04-15T00:18:49;5.66;99.99
63051;SHT30;49136;47.416;19.402;2023-04-15T00:21:15;5.67;99.99
63051;SHT30;49136;47.416;19.402;2023-04-15T00:23:41;5.69;99.99
63051;SHT30;49136;47.416;19.402;2023-04-15T00:26:06;5.66;99.99
63051;SHT30;49136;47.416;19.402;2023-04-15T00:28:32;5.73;99.99
63051;SHT30;49136;47.416;19.402;2023-04-15T00:30:58;5.69;99.99
63051;SHT30;49136;47.416;19.402;2023-04-15T00:33:23;5.67;99.99
63051;SHT30;49136;47.416;19.402;2023-04-15T00:35:49;5.67;99.99
63051;SHT30;49136;47.416;19.402;2023-04-15T00:38:15;5.74;99.99
63051;SHT30;49136;47.416;19.402;2023-04-15T00:40:40;5.83;99.99
63051;SHT30;49136;47.416;19.402;2023-04-15T00:43:06;5.81;99.99
63051;SHT30;49136;47.416;19.402;2023-04-15T00:45:31;5.83;99.99
63051;SHT30;49136;47.416;19.402;2023-04-15T00:47:58;5.84;99.99
63051;SHT30;49136;47.416;19.402;2023-04-15T00:50:23;5.80;99.99
63051;SHT30;49136;47.416;19.402;2023-04-15T00:52:49;5.77;99.99
63051;SHT30;49136;47.416;19.402;2023-04-15T00:55:15;5.74;99.99
63051;SHT30;49136;47.416;19.402;2023-04-15T00:57:40;5.73;99.99
63051;SHT30;49136;47.416;19.402;2023-04-15T01:00:06;5.74;99.99
63051;SHT30;49136;47.416;19.402;2023-04-15T01:02:34;5.80;99.99
63051;SHT30;49136;47.416;19.402;2023-04-15T01:05:00;5.78;99.99
63051;SHT30;49136;47.416;19.402;2023-04-15T01:07:26;5.78;99.99
63051;SHT30;49136;47.416;19.402;2023-04-15T01:09:52;5.74;99.99
63051;SHT30;49136;47.416;19.402;2023-04-15T01:12:18;5.69;99.99
63051;SHT30;49136;47.416;19.402;2023-04-15T01:14:44;5.67;99.99
63051;SHT30;49136;47.416;19.402;2023-04-15T01:17:10;5.63;99.99
63051;SHT30;49136;47.416;19.402;2023-04-15T01:19:36;5.60;99.99
63051;SHT30;49136;47.416;19.402;2023-04-15T01:22:02;5.59;99.99
63051;SHT30;49136;47.416;19.402;2023-04-15T01:24:33;5.52;99.99
63051;SHT30;49136;47.416;19.402;2023-04-15T01:27:00;5.54;99.99
63051;SHT30;49136;47.416;19.402;2023-04-15T01:29:25;5.52;99.99
63051;SHT30;49136;47.416;19.402;2023-04-15T01:31:53;5.49;99.99
63051;SHT30;49136;47.416;19.402;2023-04-15T01:34:19;5.52;99.99
63051;SHT30;49136;47.416;19.402;2023-04-15T01:36:45;5.52;99.99
63051;SHT30;49136;47.416;19.402;2023-04-15T01:39:11;5.56;99.99
63051;SHT30;49136;47.416;19.402;2023-04-15T01:41:36;5.53;99.99
63051;SHT30;49136;47.416;19.402;2023-04-15T01:44:02;5.62;99.99
63051;SHT30;49136;47.416;19.402;2023-04-15T01:46:27;5.60;99.99
63051;SHT30;49136;47.416;19.402;2023-04-15T01:48:53;5.62;99.99
63051;SHT30;49136;47.416;19.402;2023-04-15T01:51:18;5.69;99.99
63051;SHT30;49136;47.416;19.402;2023-04-15T01:53:44;5.67;99.99
63051;SHT30;49136;47.416;19.402;2023-04-15T01:56:09;5.66;99.99
63051;SHT30;49136;47.416;19.402;2023-04-15T01:58:35;5.69;99.99
63051;SHT30;49136;47.416;19.402;2023-04-15T02:01:00;5.67;99.99
63051;SHT30;49136;47.416;19.402;2023-04-15T02:03:27;5.71;99.99
63051;SHT30;49136;47.416;19.402;2023-04-15T02:05:53;5.73;99.99
63051;SHT30;49136;47.416;19.402;2023-04-15T02:08:19;5.80;99.99
63051;SHT30;49136;47.416;19.402;2023-04-15T02:10:44;5.84;99.99
63051;SHT30;49136;47.416;19.402;2023-04-15T02:13:10;5.95;99.99
63051;SHT30;49136;47.416;19.402;2023-04-15T02:15:35;6.08;99.99
63051;SHT30;49136;47.416;19.402;2023-04-15T02:18:01;6.25;99.99
63051;SHT30;49136;47.416;19.402;2023-04-15T02:20:26;6.33;99.99
63051;SHT30;49136;47.416;19.402;2023-04-15T02:22:52;6.40;99.99
63051;SHT30;49136;47.416;19.402;2023-04-15T02:25:17;6.44;99.99
63051;SHT30;49136;47.416;19.402;2023-04-15T02:27:43;6.57;99.99
63051;SHT30;49136;47.416;19.402;2023-04-15T02:30:09;6.53;99.99
63051;SHT30;49136;47.416;19.402;2023-04-15T02:32:34;6.56;99.99
63051;SHT30;49136;47.416;19.402;2023-04-15T02:35:03;6.54;99.99
63051;SHT30;49136;47.416;19.402;2023-04-15T02:37:29;6.54;99.99
63051;SHT30;49136;47.416;19.402;2023-04-15T02:39:56;6.60;99.99
63051;SHT30;49136;47.416;19.402;2023-04-15T02:42:21;6.51;99.99
63051;SHT30;49136;47.416;19.402;2023-04-15T02:44:47;6.56;99.99
63051;SHT30;49136;47.416;19.402;2023-04-15T02:47:12;6.50;99.99
63051;SHT30;49136;47.416;19.402;2023-04-15T02:49:39;6.50;99.99
63051;SHT30;49136;47.416;19.402;2023-04-15T02:52:05;6.44;99.99
63051;SHT30;49136;47.416;19.402;2023-04-15T02:54:31;6.53;99.99
63051;SHT30;49136;47.416;19.402;2023-04-15T02:56:58;6.50;99.99
63051;SHT30;49136;47.416;19.402;2023-04-15T02:59:24;6.50;99.99
63051;SHT30;49136;47.416;19.402;2023-04-15T03:01:49;6.44;99.99
63051;SHT30;49136;47.416;19.402;2023-04-15T03:04:15;6.37;99.99
63051;SHT30;49136;47.416;19.402;2023-04-15T03:06:40;6.39;99.99
63051;SHT30;49136;47.416;19.402;2023-04-15T03:09:05;6.36;99.99
63051;SHT30;49136;47.416;19.402;2023-04-15T03:11:31;6.39;99.99
63051;SHT30;49136;47.416;19.402;2023-04-15T03:13:57;6.36;99.99
63051;SHT30;49136;47.416;19.402;2023-04-15T03:16:23;6.40;99.99
63051;SHT30;49136;47.416;19.402;2023-04-15T03:18:49;6.40;99.99
63051;SHT30;49136;47.416;19.402;2023-04-15T03:21:14;6.40;99.99
63051;SHT30;49136;47.416;19.402;2023-04-15T03:23:40;6.41;99.99
63051;SHT30;49136;47.416;19.402;2023-04-15T03:26:05;6.40;99.99
63051;SHT30;49136;47.416;19.402;2023-04-15T03:28:31;6.41;99.99
63051;SHT30;49136;47.416;19.402;2023-04-15T03:30:57;6.36;99.99
63051;SHT30;49136;47.416;19.402;2023-04-15T03:33:23;6.32;99.99
63051;SHT30;49136;47.416;19.402;2023-04-15T03:35:49;6.32;99.99
63051;SHT30;49136;47.416;19.402;2023-04-15T03:38:15;6.30;99.99
63051;SHT30;49136;47.416;19.402;2023-04-15T03:40:40;6.33;99.99
63051;SHT30;49136;47.416;19.402;2023-04-15T03:43:06;6.36;99.99
63051;SHT30;49136;47.416;19.402;2023-04-15T03:45:32;6.34;99.99
63051;SHT30;49136;47.416;19.402;2023-04-15T03:47:57;6.30;99.99
63051;SHT30;49136;47.416;19.402;2023-04-15T03:50:23;6.34;99.99
63051;SHT30;49136;47.416;19.402;2023-04-15T03:52:48;6.36;99.99
63051;SHT30;49136;47.416;19.402;2023-04-15T03:55:13;6.33;99.99
63051;SHT30;49136;47.416;19.402;2023-04-15T03:57:40;6.34;99.99
63051;SHT30;49136;47.416;19.402;2023-04-15T04:00:06;6.34;99.99
63051;SHT30;49136;47.416;19.402;2023-04-15T04:02:33;6.37;99.99
63051;SHT30;49136;47.416;19.402;2023-04-15T04:04:58;6.36;99.99
63051;SHT30;49136;47.416;19.402;2023-04-15T04:07:24;6.30;99.99
63051;SHT30;49136;47.416;19.402;2023-04-15T04:09:49;6.32;99.99
63051;SHT30;49136;47.416;19.402;2023-04-15T04:12:15;6.37;99.99
63051;SHT30;49136;47.416;19.402;2023-04-15T04:14:41;6.40;99.99
63051;SHT30;49136;47.416;19.402;2023-04-15T04:17:07;6.47;99.99
63051;SHT30;49136;47.416;19.402;2023-04-15T04:19:32;6.50;99.99
63051;SHT30;49136;47.416;19.402;2023-04-15T04:21:58;6.53;99.99
63051;SHT30;49136;47.416;19.402;2023-04-15T04:24:24;6.60;99.99
63051;SHT30;49136;47.416;19.402;2023-04-15T04:26:49;6.63;99.99
63051;SHT30;49136;47.416;19.402;2023-04-15T04:29:15;6.70;99.99
63051;SHT30;49136;47.416;19.402;2023-04-15T04:31:40;6.78;99.99
63051;SHT30;49136;47.416;19.402;2023-04-15T04:34:06;6.85;99.99
63051;SHT30;49136;47.416;19.402;2023-04-15T04:36:32;6.92;99.99
63051;SHT30;49136;47.416;19.402;2023-04-15T04:38:57;6.96;99.99
63051;SHT30;49136;47.416;19.402;2023-04-15T04:41:22;6.88;99.99
63051;SHT30;49136;47.416;19.402;2023-04-15T04:43:48;6.81;99.99
63051;SHT30;49136;47.416;19.402;2023-04-15T04:46:13;6.75;99.99
63051;SHT30;49136;47.416;19.402;2023-04-15T04:48:39;6.71;99.99
63051;SHT30;49136;47.416;19.402;2023-04-15T04:51:05;6.70;99.99
63051;SHT30;49136;47.416;19.402;2023-04-15T04:53:31;6.70;99.99
63051;SHT30;49136;47.416;19.402;2023-04-15T04:55:57;6.68;99.99
63051;SHT30;49136;47.416;19.402;2023-04-15T04:58:23;6.68;99.99
63051;SHT30;49136;47.416;19.402;2023-04-15T05:00:48;6.74;99.99
63051;SHT30;49136;47.416;19.402;2023-04-15T05:03:14;6.87;99.99
63051;SHT30;49136;47.416;19.402;2023-04-15T05:05:39;6.99;99.99
63051;SHT30;49136;47.416;19.402;2023-04-15T05:08:08;7.06;99.99
63051;SHT30;49136;47.416;19.402;2023-04-15T05:10:34;7.13;99.99
63051;SHT30;49136;47.416;19.402;2023-04-15T05:12:59;7.15;99.99
63051;SHT30;49136;47.416;19.402;2023-04-15T05:15:25;7.23;99.99
63051;SHT30;49136;47.416;19.402;2023-04-15T05:17:50;7.33;99.99
63051;SHT30;49136;47.416;19.402;2023-04-15T05:20:15;7.33;99.99
63051;SHT30;49136;47.416;19.402;2023-04-15T05:22:41;7.58;99.99
63051;SHT30;49136;47.416;19.402;2023-04-15T05:25:07;7.78;99.34
63051;SHT30;49136;47.416;19.402;2023-04-15T05:27:33;8.03;98.84
63051;SHT30;49136;47.416;19.402;2023-04-15T05:29:58;8.35;98.49
63051;SHT30;49136;47.416;19.402;2023-04-15T05:32:23;8.20;97.42
63051;SHT30;49136;47.416;19.402;2023-04-15T05:34:49;8.35;97.12
63051;SHT30;49136;47.416;19.402;2023-04-15T05:37:15;8.68;96.82
63051;SHT30;49136;47.416;19.402;2023-04-15T05:39:40;8.61;96.26
63051;SHT30;49136;47.416;19.402;2023-04-15T05:42:06;8.58;96.58
63051;SHT30;49136;47.416;19.402;2023-04-15T05:44:32;8.44;96.48
63051;SHT30;49136;47.416;19.402;2023-04-15T05:46:57;8.58;96.62
63051;SHT30;49136;47.416;19.402;2023-04-15T05:49:23;8.77;96.70
63051;SHT30;49136;47.416;19.402;2023-04-15T05:51:48;8.65;96.55
63051;SHT30;49136;47.416;19.402;2023-04-15T05:54:14;8.66;96.51
63051;SHT30;49136;47.416;19.402;2023-04-15T05:56:39;8.70;96.91
63051;SHT30;49136;47.416;19.402;2023-04-15T05:59:05;9.17;96.51
63051;SHT30;49136;47.416;19.402;2023-04-15T06:01:32;9.24;94.78
63051;SHT30;49136;47.416;19.402;2023-04-15T06:03:57;9.17;95.15
63051;SHT30;49136;47.416;19.402;2023-04-15T06:06:23;9.03;94.77
63051;SHT30;49136;47.416;19.402;2023-04-15T06:08:48;9.20;95.15
63051;SHT30;49136;47.416;19.402;2023-04-15T06:11:15;9.79;94.42
63051;SHT30;49136;47.416;19.402;2023-04-15T06:13:40;10.25;94.29
63051;SHT30;49136;47.416;19.402;2023-04-15T06:16:06;10.75;93.55
63051;SHT30;49136;47.416;19.402;2023-04-15T06:18:32;11.14;90.66
63051;SHT30;49136;47.416;19.402;2023-04-15T06:20:57;11.04;88.93
63051;SHT30;49136;47.416;19.402;2023-04-15T06:23:23;10.92;89.81
63051;SHT30;49136;47.416;19.402;2023-04-15T06:25:48;11.16;90.06
63051;SHT30;49136;47.416;19.402;2023-04-15T06:28:14;11.16;89.15
63051;SHT30;49136;47.416;19.402;2023-04-15T06:30:39;10.60;89.42
63051;SHT30;49136;47.416;19.402;2023-04-15T06:33:05;10.94;89.10
63051;SHT30;49136;47.416;19.402;2023-04-15T06:35:31;11.19;88.21
63051;SHT30;49136;47.416;19.402;2023-04-15T06:37:56;11.46;87.79
63051;SHT30;49136;47.416;19.402;2023-04-15T06:40:22;11.37;86.92
63051;SHT30;49136;47.416;19.402;2023-04-15T06:42:48;11.86;87.33
63051;SHT30;49136;47.416;19.402;2023-04-15T06:45:14;11.99;87.12
63051;SHT30;49136;47.416;19.402;2023-04-15T06:47:40;11.88;85.58
63051;SHT30;49136;47.416;19.402;2023-04-15T06:50:06;11.98;86.69
63051;SHT30;49136;47.416;19.402;2023-04-15T06:52:33;11.64;86.27
63051;SHT30;49136;47.416;19.402;2023-04-15T06:55:00;11.98;84.98
63051;SHT30;49136;47.416;19.402;2023-04-15T06:57:26;11.81;85.77
63051;SHT30;49136;47.416;19.402;2023-04-15T06:59:55;11.44;87.07
63051;SHT30;49136;47.416;19.402;2023-04-15T07:02:21;11.47;86.08
63051;SHT30;49136;47.416;19.402;2023-04-15T07:04:46;12.02;86.29
63051;SHT30;49136;47.416;19.402;2023-04-15T07:07:13;12.34;84.31
63051;SHT30;49136;47.416;19.402;2023-04-15T07:09:39;12.96;83.80
63051;SHT30;49136;47.416;19.402;2023-04-15T07:12:05;13.54;82.28
63051;SHT30;49136;47.416;19.402;2023-04-15T07:14:30;13.14;81.91
63051;SHT30;49136;47.416;19.402;2023-04-15T07:16:56;13.71;82.08
63051;SHT30;49136;47.416;19.402;2023-04-15T07:19:21;14.05;79.45
63051;SHT30;49136;47.416;19.402;2023-04-15T07:21:48;14.07;80.39
63051;SHT30;49136;47.416;19.402;2023-04-15T07:24:13;13.47;79.29
63051;SHT30;49136;47.416;19.402;2023-04-15T07:26:43;13.79;81.08
63051;SHT30;49136;47.416;19.402;2023-04-15T07:29:08;13.14;80.47
63051;SHT30;49136;47.416;19.402;2023-04-15T07:31:35;12.96;81.00
63051;SHT30;49136;47.416;19.402;2023-04-15T07:34:03;12.96;82.26
63051;SHT30;49136;47.416;19.402;2023-04-15T07:36:29;12.91;80.53
63051;SHT30;49136;47.416;19.402;2023-04-15T07:38:55;13.23;80.58
63051;SHT30;49136;47.416;19.402;2023-04-15T07:41:22;13.71;79.29
63051;SHT30;49136;47.416;19.402;2023-04-15T07:43:47;13.58;78.94
63051;SHT30;49136;47.416;19.402;2023-04-15T07:46:14;13.44;78.32
63051;SHT30;49136;47.416;19.402;2023-04-15T07:48:40;13.33;78.78
63051;SHT30;49136;47.416;19.402;2023-04-15T07:51:05;14.20;78.36
63051;SHT30;49136;47.416;19.402;2023-04-15T07:53:31;14.21;76.58
63051;SHT30;49136;47.416;19.402;2023-04-15T07:55:57;14.86;77.88
63051;SHT30;49136;47.416;19.402;2023-04-15T07:58:23;14.69;75.61
63051;SHT30;49136;47.416;19.402;2023-04-15T08:00:48;14.45;77.01
63051;SHT30;49136;47.416;19.402;2023-04-15T08:03:14;14.73;76.78
63051;SHT30;49136;47.416;19.402;2023-04-15T08:05:39;14.51;75.21
63051;SHT30;49136;47.416;19.402;2023-04-15T08:08:05;14.44;75.90
63051;SHT30;49136;47.416;19.402;2023-04-15T08:10:31;14.48;74.83
63051;SHT30;49136;47.416;19.402;2023-04-15T08:12:56;14.45;75.44
63051;SHT30;49136;47.416;19.402;2023-04-15T08:15:22;13.99;73.92
63051;SHT30;49136;47.416;19.402;2023-04-15T08:17:48;14.51;73.22
63051;SHT30;49136;47.416;19.402;2023-04-15T08:20:13;14.37;73.13
63051;SHT30;49136;47.416;19.402;2023-04-15T08:22:39;14.83;74.73
63051;SHT30;49136;47.416;19.402;2023-04-15T08:25:06;15.49;72.70
63051;SHT30;49136;47.416;19.402;2023-04-15T08:27:33;15.41;74.14
63051;SHT30;49136;47.416;19.402;2023-04-15T08:29:58;15.46;72.49
63051;SHT30;49136;47.416;19.402;2023-04-15T08:32:24;15.45;71.45
63051;SHT30;49136;47.416;19.402;2023-04-15T08:34:51;15.49;70.41
63051;SHT30;49136;47.416;19.402;2023-04-15T08:37:17;16.08;70.14
63051;SHT30;49136;47.416;19.402;2023-04-15T08:39:43;15.76;69.30
63051;SHT30;49136;47.416;19.402;2023-04-15T08:42:16;14.73;70.30
63051;SHT30;49136;47.416;19.402;2023-04-15T08:44:43;14.59;71.08
63051;SHT30;49136;47.416;19.402;2023-04-15T08:47:12;14.38;71.66
63051;SHT30;49136;47.416;19.402;2023-04-15T08:49:39;14.34;72.20
63051;SHT30;49136;47.416;19.402;2023-04-15T08:52:08;14.14;72.02
63051;SHT30;49136;47.416;19.402;2023-04-15T08:54:34;13.86;71.79
63051;SHT30;49136;47.416;19.402;2023-04-15T08:57:00;14.13;72.36
63051;SHT30;49136;47.416;19.402;2023-04-15T08:59:28;14.20;72.76
63051;SHT30;49136;47.416;19.402;2023-04-15T09:01:54;14.20;72.15
63051;SHT30;49136;47.416;19.402;2023-04-15T09:04:21;14.16;71.88
63051;SHT30;49136;47.416;19.402;2023-04-15T09:06:46;13.96;72.98
63051;SHT30;49136;47.416;19.402;2023-04-15T09:09:12;13.82;73.24
63051;SHT30;49136;47.416;19.402;2023-04-15T09:11:38;13.26;74.97
63051;SHT30;49136;47.416;19.402;2023-04-15T09:14:04;12.86;76.78
63051;SHT30;49136;47.416;19.402;2023-04-15T09:16:30;12.50;79.49
63051;SHT30;49136;47.416;19.402;2023-04-15T09:18:56;12.36;81.51
63051;SHT30;49136;47.416;19.402;2023-04-15T09:21:22;12.61;81.17
63051;SHT30;49136;47.416;19.402;2023-04-15T09:23:58;13.44;80.96
63051;SHT30;49136;47.416;19.402;2023-04-15T09:26:35;14.18;75.17
63051;SHT30;49136;47.416;19.402;2023-04-15T09:29:08;14.32;75.74
63051;SHT30;49136;47.416;19.402;2023-04-15T09:31:35;14.41;74.01
63051;SHT30;49136;47.416;19.402;2023-04-15T09:34:01;14.23;74.17
63051;SHT30;49136;47.416;19.402;2023-04-15T09:36:27;13.89;74.48
63051;SHT30;49136;47.416;19.402;2023-04-15T09:38:56;13.43;76.86
63051;SHT30;49136;47.416;19.402;2023-04-15T09:41:23;13.12;80.41
63051;SHT30;49136;47.416;19.402;2023-04-15T09:43:49;13.27;80.31
63051;SHT30;49136;47.416;19.402;2023-04-15T09:46:14;13.51;81.44
63051;SHT30;49136;47.416;19.402;2023-04-15T09:48:40;13.72;81.18
63051;SHT30;49136;47.416;19.402;2023-04-15T09:51:05;13.78;78.33
63051;SHT30;49136;47.416;19.402;2023-04-15T09:53:33;13.89;79.02
63051;SHT30;49136;47.416;19.402;2023-04-15T09:55:59;14.90;78.54
63051;SHT30;49136;47.416;19.402;2023-04-15T09:58:33;15.80;76.15
63051;SHT30;49136;47.416;19.402;2023-04-15T10:01:01;15.83;72.73
63051;SHT30;49136;47.416;19.402;2023-04-15T10:03:29;15.90;72.21
63051;SHT30;49136;47.416;19.402;2023-04-15T10:05:56;15.74;73.21
63051;SHT30;49136;47.416;19.402;2023-04-15T10:08:25;15.04;73.22
63051;SHT30;49136;47.416;19.402;2023-04-15T10:10:52;14.87;73.99
63051;SHT30;49136;47.416;19.402;2023-04-15T10:13:24;14.69;76.63
63051;SHT30;49136;47.416;19.402;2023-04-15T10:18:22;15.36;74.49
63051;SHT30;49136;47.416;19.402;2023-04-15T10:20:49;15.49;72.59
63051;SHT30;49136;47.416;19.402;2023-04-15T10:23:15;15.82;72.15
63051;SHT30;49136;47.416;19.402;2023-04-15T10:25:43;15.87;71.39
63051;SHT30;49136;47.416;19.402;2023-04-15T10:28:11;15.89;71.57
63051;SHT30;49136;47.416;19.402;2023-04-15T10:30:38;15.55;69.64
63051;SHT30;49136;47.416;19.402;2023-04-15T10:33:04;15.65;70.41
63051;SHT30;49136;47.416;19.402;2023-04-15T10:35:31;15.82;69.80
63051;SHT30;49136;47.416;19.402;2023-04-15T10:37:58;16.11;68.23
63051;SHT30;49136;47.416;19.402;2023-04-15T10:40:33;15.67;66.65
63051;SHT30;49136;47.416;19.402;2023-04-15T10:43:02;15.67;69.85
63051;SHT30;49136;47.416;19.402;2023-04-15T10:45:32;15.35;71.80
63051;SHT30;49136;47.416;19.402;2023-04-15T10:48:01;15.63;72.85
63051;SHT30;49136;47.416;19.402;2023-04-15T10:50:27;15.84;71.55
63051;SHT30;49136;47.416;19.402;2023-04-15T10:52:55;15.97;69.62
63051;SHT30;49136;47.416;19.402;2023-04-15T10:55:26;16.11;70.34
63051;SHT30;49136;47.416;19.402;2023-04-15T10:57:58;16.33;69.87
63051;SHT30;49136;47.416;19.402;2023-04-15T11:00:27;16.33;68.94
63051;SHT30;49136;47.416;19.402;2023-04-15T11:03:05;15.52;70.67
63051;SHT30;49136;47.416;19.402;2023-04-15T11:08:07;15.36;72.63
63051;SHT30;49136;47.416;19.402;2023-04-15T11:13:14;15.39;71.59
63051;SHT30;49136;47.416;19.402;2023-04-15T11:15:45;15.62;71.65
63051;SHT30;49136;47.416;19.402;2023-04-15T11:18:11;15.84;71.15
63051;SHT30;49136;47.416;19.402;2023-04-15T11:20:38;15.98;71.31
63051;SHT30;49136;47.416;19.402;2023-04-15T11:23:05;15.86;70.80
63051;SHT30;49136;47.416;19.402;2023-04-15T11:25:33;15.49;69.97
63051;SHT30;49136;47.416;19.402;2023-04-15T11:28:00;15.00;71.83
63051;SHT30;49136;47.416;19.402;2023-04-15T11:30:28;15.07;71.78
63051;SHT30;49136;47.416;19.402;2023-04-15T11:32:57;15.31;70.67
63051;SHT30;49136;47.416;19.402;2023-04-15T11:35:23;15.80;69.62
63051;SHT30;49136;47.416;19.402;2023-04-15T11:37:49;16.36;68.89
63051;SHT30;49136;47.416;19.402;2023-04-15T11:40:15;16.60;66.77
63051;SHT30;49136;47.416;19.402;2023-04-15T11:42:44;16.56;68.04
63051;SHT30;49136;47.416;19.402;2023-04-15T11:45:14;16.71;68.96
63051;SHT30;49136;47.416;19.402;2023-04-15T11:47:41;16.21;69.02
63051;SHT30;49136;47.416;19.402;2023-04-15T11:52:56;16.50;70.32
63051;SHT30;49136;47.416;19.402;2023-04-15T11:55:23;16.32;69.50
63051;SHT30;49136;47.416;19.402;2023-04-15T11:58:08;15.91;68.55
63051;SHT30;49136;47.416;19.402;2023-04-15T12:00:34;15.84;67.22
63051;SHT30;49136;47.416;19.402;2023-04-15T12:03:21;14.72;70.15
63051;SHT30;49136;47.416;19.402;2023-04-15T12:06:09;14.89;72.30
63051;SHT30;49136;47.416;19.402;2023-04-15T12:08:57;14.86;71.88
63051;SHT30;49136;47.416;19.402;2023-04-15T12:16:48;15.42;68.54
63051;SHT30;49136;47.416;19.402;2023-04-15T12:19:22;15.41;69.56
63051;SHT30;49136;47.416;19.402;2023-04-15T12:21:48;15.25;70.14
63051;SHT30;49136;47.416;19.402;2023-04-15T12:24:14;15.46;71.10
63051;SHT30;49136;47.416;19.402;2023-04-15T12:26:49;15.76;69.62
63051;SHT30;49136;47.416;19.402;2023-04-15T12:29:15;15.55;68.88
63051;SHT30;49136;47.416;19.402;2023-04-15T12:31:54;15.80;68.45
63051;SHT30;49136;47.416;19.402;2023-04-15T12:34:32;16.12;68.12
63051;SHT30;49136;47.416;19.402;2023-04-15T12:36:59;15.96;68.42
63051;SHT30;49136;47.416;19.402;2023-04-15T12:39:27;16.01;69.86
63051;SHT30;49136;47.416;19.402;2023-04-15T12:41:53;15.79;68.70
63051;SHT30;49136;47.416;19.402;2023-04-15T12:44:19;15.39;70.08
63051;SHT30;49136;47.416;19.402;2023-04-15T12:46:45;15.41;70.33
63051;SHT30;49136;47.416;19.402;2023-04-15T12:49:11;14.86;70.37
63051;SHT30;49136;47.416;19.402;2023-04-15T12:51:38;14.32;72.13
63051;SHT30;49136;47.416;19.402;2023-04-15T12:54:04;14.14;72.36
63051;SHT30;49136;47.416;19.402;2023-04-15T12:56:29;14.07;73.19
63051;SHT30;49136;47.416;19.402;2023-04-15T12:58:55;13.78;75.02
63051;SHT30;49136;47.416;19.402;2023-04-15T13:01:20;13.73;74.44
63051;SHT30;49136;47.416;19.402;2023-04-15T13:03:46;13.76;75.34
63051;SHT30;49136;47.416;19.402;2023-04-15T13:06:12;13.79;74.44
63051;SHT30;49136;47.416;19.402;2023-04-15T13:08:37;14.25;74.91
63051;SHT30;49136;47.416;19.402;2023-04-15T13:11:03;14.24;73.45
63051;SHT30;49136;47.416;19.402;2023-04-15T13:13:28;13.97;73.81
63051;SHT30;49136;47.416;19.402;2023-04-15T13:15:56;13.99;74.92
63051;SHT30;49136;47.416;19.402;2023-04-15T13:18:22;13.97;74.85
63051;SHT30;49136;47.416;19.402;2023-04-15T13:20:48;14.25;74.49
63051;SHT30;49136;47.416;19.402;2023-04-15T13:23:13;14.58;72.97
63051;SHT30;49136;47.416;19.402;2023-04-15T13:25:39;14.77;72.93
63051;SHT30;49136;47.416;19.402;2023-04-15T13:28:05;15.01;72.27
63051;SHT30;49136;47.416;19.402;2023-04-15T13:30:30;14.83;72.15
63051;SHT30;49136;47.416;19.402;2023-04-15T13:32:56;14.93;71.32
63051;SHT30;49136;47.416;19.402;2023-04-15T13:35:22;14.93;71.58
63051;SHT30;49136;47.416;19.402;2023-04-15T13:37:47;15.06;71.38
63051;SHT30;49136;47.416;19.402;2023-04-15T13:40:12;15.06;72.57
63051;SHT30;49136;47.416;19.402;2023-04-15T13:42:38;14.93;71.45
63051;SHT30;49136;47.416;19.402;2023-04-15T13:45:04;14.65;71.37
63051;SHT30;49136;47.416;19.402;2023-04-15T13:47:29;14.59;71.88
63051;SHT30;49136;47.416;19.402;2023-04-15T13:49:55;14.46;72.38
63051;SHT30;49136;47.416;19.402;2023-04-15T13:52:21;14.30;72.55
63051;SHT30;49136;47.416;19.402;2023-04-15T13:54:47;14.00;73.69
63051;SHT30;49136;47.416;19.402;2023-04-15T13:57:13;13.90;74.15
63051;SHT30;49136;47.416;19.402;2023-04-15T13:59:38;14.02;73.87
63051;SHT30;49136;47.416;19.402;2023-04-15T14:02:04;14.00;74.31
63051;SHT30;49136;47.416;19.402;2023-04-15T14:04:30;14.05;74.90
63051;SHT30;49136;47.416;19.402;2023-04-15T14:06:56;13.93;74.60
63051;SHT30;49136;47.416;19.402;2023-04-15T14:09:21;13.79;75.42
63051;SHT30;49136;47.416;19.402;2023-04-15T14:11:49;13.62;74.87
63051;SHT30;49136;47.416;19.402;2023-04-15T14:14:14;13.33;75.75
63051;SHT30;49136;47.416;19.402;2023-04-15T14:16:40;13.27;75.85
63051;SHT30;49136;47.416;19.402;2023-04-15T14:19:05;13.09;76.28
63051;SHT30;49136;47.416;19.402;2023-04-15T14:21:31;12.95;77.17
63051;SHT30;49136;47.416;19.402;2023-04-15T14:23:57;12.86;78.45
63051;SHT30;49136;47.416;19.402;2023-04-15T14:26:23;12.88;78.14
63051;SHT30;49136;47.416;19.402;2023-04-15T14:28:48;12.84;79.92
63051;SHT30;49136;47.416;19.402;2023-04-15T14:31:13;12.89;79.45
63051;SHT30;49136;47.416;19.402;2023-04-15T14:33:39;12.95;79.45
63051;SHT30;49136;47.416;19.402;2023-04-15T14:36:06;12.96;78.85
63051;SHT30;49136;47.416;19.402;2023-04-15T14:38:35;12.82;79.03
63051;SHT30;49136;47.416;19.402;2023-04-15T14:41:06;12.89;78.78
63051;SHT30;49136;47.416;19.402;2023-04-15T14:43:35;12.84;78.56
63051;SHT30;49136;47.416;19.402;2023-04-15T14:46:00;12.72;79.07
63051;SHT30;49136;47.416;19.402;2023-04-15T14:48:26;12.81;79.07
63051;SHT30;49136;47.416;19.402;2023-04-15T14:50:52;12.89;78.62
63051;SHT30;49136;47.416;19.402;2023-04-15T14:53:17;12.67;78.48
63051;SHT30;49136;47.416;19.402;2023-04-15T14:55:43;12.58;79.56
63051;SHT30;49136;47.416;19.402;2023-04-15T14:58:09;12.53;79.86
63051;SHT30;49136;47.416;19.402;2023-04-15T15:00:36;12.36;80.16
63051;SHT30;49136;47.416;19.402;2023-04-15T15:03:04;12.38;78.93
63051;SHT30;49136;47.416;19.402;2023-04-15T15:05:45;12.19;77.89
63051;SHT30;49136;47.416;19.402;2023-04-15T15:08:11;12.15;77.52
63051;SHT30;49136;47.416;19.402;2023-04-15T15:10:38;12.19;77.76
63051;SHT30;49136;47.416;19.402;2023-04-15T15:13:05;12.30;77.51
63051;SHT30;49136;47.416;19.402;2023-04-15T15:15:31;12.32;76.65
63051;SHT30;49136;47.416;19.402;2023-04-15T15:17:57;12.44;76.85
63051;SHT30;49136;47.416;19.402;2023-04-15T15:20:24;12.23;77.68
63051;SHT30;49136;47.416;19.402;2023-04-15T15:22:49;12.22;77.90
63051;SHT30;49136;47.416;19.402;2023-04-15T15:25:15;12.26;78.96
63051;SHT30;49136;47.416;19.402;2023-04-15T15:27:41;12.36;78.82
63051;SHT30;49136;47.416;19.402;2023-04-15T15:30:07;12.36;79.80
63051;SHT30;49136;47.416;19.402;2023-04-15T15:32:33;12.29;79.96
63051;SHT30;49136;47.416;19.402;2023-04-15T15:34:58;12.26;80.46